Pagina principale
METAR-TAF:

METAR-TAF

Aeroporti :

Aeroporto di Yaoundé-Nsimalen

Yaoundé, Camerun

latitudine: 03-50N, longitudine: 011-31E, altezza: 751 m

Osservazione

Il bollettino è stato emesso 58 minuti fa, alle 13:00 UTC
Temperature 31°C
Umidità 55%
Pressione 1014 hPa
Visibilità: 6000 m
Nuvoloso ad un'altezza di 2000 ft

METAR: FKYS 171300Z /////KT 6000 BKN020 31/21 Q1014 NOSIG

Ora: 14:58 (13:58 UTC)

Previsione

Il bollettino è stato emesso 2 ore e 58 minuti fa, alle 11:00 UTC
Previsione valida dal 17 alle 12 UTC al 18 alle 12 UTC
Vento 5 kt da direzioni variabili
Visibilità: 8000 m
Nuvoloso ad un'altezza di 2000 ft
Evoluzione graduale
dal 17 alle 20 UTC al 17 alle 22 UTC
Nuvoloso ad un'altezza di 600 ft
Temporaneamente
dal 18 alle 04 UTC al 18 alle 08 UTC
Visibilità: 2000 m
foschia

TAF: FKYS 171100Z 1712/1812 VRB05KT 8000 BKN020 BECMG 1720/1722 BKN006 TEMPO 1804/1808 2000 BR

Osservazioni e previsioni meteorologiche di più di 4000 aeroporti (messaggi METAR e TAF).

Le stazioni disponibili sono rappresentate dai dischi gialli e rossi sulla carta.

Puntare il mouse per vedere il nome della stazione.

Clicca sopra per visualizzare le osservazioni e previsioni meteorologiche.

Per cambiare la mappa : fare clic sui pulsanti verdi con una croce nera per ingrandire, il pulsante verde con un trattino per diminuire, o sulla freccia verde per le mappe adiacenti.


METAR-TAF: